createdAt,value
2023-03-25T00:01:08.087Z,987.3
2023-03-25T00:02:23.302Z,987.3
2023-03-25T00:03:39.435Z,987.2
2023-03-25T00:04:55.555Z,987.2
2023-03-25T00:06:11.690Z,987.2
2023-03-25T00:07:27.831Z,987.2
2023-03-25T00:08:43.983Z,987.2
2023-03-25T00:10:00.104Z,987.2
2023-03-25T00:11:16.235Z,987.2
2023-03-25T00:12:32.370Z,987.2
2023-03-25T00:13:48.507Z,987.3
2023-03-25T00:15:04.646Z,987.2
2023-03-25T00:16:20.785Z,987.2
2023-03-25T00:17:36.924Z,987.2
2023-03-25T00:18:53.054Z,987.2
2023-03-25T00:20:09.188Z,987.1
2023-03-25T00:21:25.328Z,987.1
2023-03-25T00:22:41.466Z,987.1
2023-03-25T00:23:57.602Z,987.1
2023-03-25T00:25:13.731Z,987.1
2023-03-25T00:26:29.875Z,987.1
2023-03-25T00:27:46.018Z,987.1
2023-03-25T00:29:02.154Z,987.1
2023-03-25T00:30:18.275Z,987.2
2023-03-25T00:31:34.420Z,987.2
2023-03-25T00:32:50.543Z,987.1
2023-03-25T00:34:06.750Z,987.2
2023-03-25T00:35:21.995Z,987.1
2023-03-25T00:36:37.203Z,987.1
2023-03-25T00:37:53.337Z,987.1
2023-03-25T00:39:09.475Z,987.1
2023-03-25T00:40:25.610Z,987.1
2023-03-25T00:41:41.755Z,987.1
2023-03-25T00:42:57.878Z,987.1
2023-03-25T00:44:14.033Z,987.1
2023-03-25T00:45:30.167Z,987.1
2023-03-25T00:46:46.295Z,987.1
2023-03-25T00:48:02.425Z,987
2023-03-25T00:49:18.562Z,987
2023-03-25T00:50:34.714Z,987
2023-03-25T00:51:50.849Z,987
2023-03-25T00:53:06.982Z,987
2023-03-25T00:54:23.103Z,986.9
2023-03-25T00:55:39.237Z,986.8
2023-03-25T00:56:55.394Z,986.8
2023-03-25T00:58:11.530Z,986.8
2023-03-25T00:59:27.654Z,986.8
2023-03-25T01:00:43.789Z,986.8
2023-03-25T01:01:59.930Z,986.8
2023-03-25T01:03:16.073Z,986.8
2023-03-25T01:04:32.199Z,986.9
2023-03-25T01:05:48.331Z,986.9
2023-03-25T01:07:04.472Z,986.9
2023-03-25T01:08:20.660Z,986.9
2023-03-25T01:09:35.905Z,986.9
2023-03-25T01:10:52.097Z,987
2023-03-25T01:12:07.303Z,986.9
2023-03-25T01:13:23.443Z,986.9
2023-03-25T01:14:39.571Z,986.9
2023-03-25T01:15:55.704Z,986.9
2023-03-25T01:17:11.843Z,986.9
2023-03-25T01:18:27.974Z,986.9
2023-03-25T01:19:44.118Z,986.9
2023-03-25T01:21:00.264Z,986.9
2023-03-25T01:22:16.393Z,986.9
2023-03-25T01:23:32.517Z,986.8
2023-03-25T01:24:48.650Z,986.9
2023-03-25T01:26:04.812Z,986.9
2023-03-25T01:27:20.934Z,986.9
2023-03-25T01:28:37.066Z,986.9
2023-03-25T01:29:53.206Z,986.9
2023-03-25T01:31:09.342Z,986.9
2023-03-25T01:32:25.489Z,986.9
2023-03-25T01:33:41.622Z,986.9
2023-03-25T01:34:57.758Z,986.9
2023-03-25T01:36:13.893Z,986.9
2023-03-25T01:38:46.170Z,986.9
2023-03-25T01:40:02.299Z,986.9
2023-03-25T01:41:18.441Z,987
2023-03-25T01:42:34.569Z,986.9
2023-03-25T01:43:50.756Z,987
2023-03-25T01:45:05.996Z,987
2023-03-25T01:46:21.198Z,987
2023-03-25T01:47:36.347Z,987
2023-03-25T01:48:52.479Z,987
2023-03-25T01:50:08.623Z,986.9
2023-03-25T01:51:24.763Z,986.9
2023-03-25T01:52:40.883Z,986.9
2023-03-25T01:53:57.041Z,986.9
2023-03-25T01:55:13.165Z,986.9
2023-03-25T01:56:29.296Z,986.8
2023-03-25T01:57:45.441Z,986.9
2023-03-25T01:59:01.567Z,986.9
2023-03-25T02:00:17.708Z,986.9
2023-03-25T02:01:33.855Z,986.9
2023-03-25T02:02:49.987Z,986.9
2023-03-25T02:04:06.117Z,986.9
2023-03-25T02:05:22.246Z,986.8
2023-03-25T02:06:38.401Z,986.9
2023-03-25T02:07:54.538Z,986.9
2023-03-25T02:09:10.672Z,986.9
2023-03-25T02:10:26.798Z,986.9
2023-03-25T02:11:42.937Z,986.8
2023-03-25T02:12:59.088Z,986.9
2023-03-25T02:14:15.220Z,986.8
2023-03-25T02:15:31.338Z,986.8
2023-03-25T02:16:47.482Z,986.8
2023-03-25T02:18:03.609Z,986.8
2023-03-25T02:19:19.762Z,986.8
2023-03-25T02:20:35.897Z,986.7
2023-03-25T02:21:52.025Z,986.7
2023-03-25T02:23:08.168Z,986.7
2023-03-25T02:24:24.291Z,986.7
2023-03-25T02:25:40.437Z,986.7
2023-03-25T02:26:56.568Z,986.6
2023-03-25T02:28:12.714Z,986.6
2023-03-25T02:29:28.849Z,986.6
2023-03-25T02:30:44.969Z,986.6
2023-03-25T02:32:01.121Z,986.6
2023-03-25T02:33:17.262Z,986.6
2023-03-25T02:34:33.441Z,986.6
2023-03-25T02:35:48.689Z,986.7
2023-03-25T02:37:03.904Z,986.7
2023-03-25T02:38:20.032Z,986.8
2023-03-25T02:39:36.162Z,986.7
2023-03-25T02:40:52.293Z,986.6
2023-03-25T02:42:08.451Z,986.6
2023-03-25T02:43:24.584Z,986.7
2023-03-25T02:44:40.701Z,986.6
2023-03-25T02:45:56.846Z,986.7
2023-03-25T02:47:12.974Z,986.6
2023-03-25T02:48:29.129Z,986.6
2023-03-25T02:49:45.263Z,986.6
2023-03-25T02:51:01.387Z,986.6
2023-03-25T02:52:17.527Z,986.6
2023-03-25T02:54:49.794Z,986.5
2023-03-25T02:56:05.940Z,986.6
2023-03-25T02:57:22.064Z,986.6
2023-03-25T02:58:38.194Z,986.6
2023-03-25T02:59:54.329Z,986.5
2023-03-25T03:01:10.491Z,986.5
2023-03-25T03:02:26.612Z,986.5
2023-03-25T03:03:42.745Z,986.5
2023-03-25T03:04:58.891Z,986.5
2023-03-25T03:06:15.018Z,986.5
2023-03-25T03:07:31.164Z,986.4
2023-03-25T03:08:47.363Z,986.5
2023-03-25T03:10:02.618Z,986.4
2023-03-25T03:11:17.824Z,986.4
2023-03-25T03:12:33.966Z,986.4
2023-03-25T03:13:50.097Z,986.4
2023-03-25T03:15:06.220Z,986.4
2023-03-25T03:16:22.353Z,986.4
2023-03-25T03:17:38.498Z,986.4
2023-03-25T03:18:54.638Z,986.4
2023-03-25T03:20:10.769Z,986.5
2023-03-25T03:21:26.897Z,986.5
2023-03-25T03:22:43.034Z,986.5
2023-03-25T03:23:59.192Z,986.5
2023-03-25T03:25:15.323Z,986.5
2023-03-25T03:26:31.453Z,986.6
2023-03-25T03:27:47.592Z,986.5
2023-03-25T03:29:03.726Z,986.6
2023-03-25T03:30:19.878Z,986.6
2023-03-25T03:31:35.993Z,986.7
2023-03-25T03:32:52.146Z,986.6
2023-03-25T03:34:08.275Z,986.6
2023-03-25T03:35:24.396Z,986.6
2023-03-25T03:36:40.544Z,986.6
2023-03-25T03:37:56.694Z,986.6
2023-03-25T03:39:12.809Z,986.7
2023-03-25T03:40:28.947Z,986.6
2023-03-25T03:41:45.077Z,986.5
2023-03-25T03:43:01.288Z,986.6
2023-03-25T03:44:16.538Z,986.6
2023-03-25T03:45:31.794Z,986.6
2023-03-25T03:46:47.040Z,986.6
2023-03-25T03:48:02.241Z,986.5
2023-03-25T03:49:17.390Z,986.6
2023-03-25T03:50:33.519Z,986.5
2023-03-25T03:51:49.653Z,986.5
2023-03-25T03:53:05.804Z,986.5
2023-03-25T03:54:21.939Z,986.5
2023-03-25T03:55:38.073Z,986.5
2023-03-25T03:56:54.220Z,986.5
2023-03-25T03:58:10.351Z,986.5
2023-03-25T03:59:26.473Z,986.5
2023-03-25T04:00:42.604Z,986.5
2023-03-25T04:01:58.756Z,986.5
2023-03-25T04:03:14.895Z,986.5
2023-03-25T04:04:31.030Z,986.5
2023-03-25T04:07:03.290Z,986.6
2023-03-25T04:08:19.433Z,986.6
2023-03-25T04:09:35.577Z,986.7
2023-03-25T04:10:51.697Z,986.7
2023-03-25T04:12:07.830Z,986.7
2023-03-25T04:13:23.965Z,986.7
2023-03-25T04:14:40.123Z,986.8
2023-03-25T04:15:56.251Z,986.8
2023-03-25T04:17:12.394Z,986.8
2023-03-25T04:18:28.518Z,986.7
2023-03-25T04:19:44.648Z,986.7
2023-03-25T04:21:00.809Z,986.8
2023-03-25T04:22:16.936Z,986.8
2023-03-25T04:23:33.062Z,986.8
2023-03-25T04:24:49.196Z,986.8
2023-03-25T04:26:05.343Z,986.8
2023-03-25T04:27:21.487Z,986.8
2023-03-25T04:28:37.612Z,986.8
2023-03-25T04:29:53.741Z,986.9
2023-03-25T04:31:09.886Z,986.8
2023-03-25T04:32:26.011Z,986.8
2023-03-25T04:33:42.158Z,986.8
2023-03-25T04:34:58.290Z,986.8
2023-03-25T04:36:14.487Z,986.7
2023-03-25T04:37:29.700Z,986.7
2023-03-25T04:38:45.828Z,986.6
2023-03-25T04:40:01.968Z,986.7
2023-03-25T04:41:18.111Z,986.7
2023-03-25T04:42:34.236Z,986.7
2023-03-25T04:43:50.376Z,986.7
2023-03-25T04:45:06.510Z,986.7
2023-03-25T04:46:22.654Z,986.7
2023-03-25T04:47:38.784Z,986.7
2023-03-25T04:48:54.921Z,986.7
2023-03-25T04:50:11.056Z,986.7
2023-03-25T04:51:27.201Z,986.7
2023-03-25T04:52:43.338Z,986.7
2023-03-25T04:53:59.475Z,986.7
2023-03-25T04:55:15.596Z,986.7
2023-03-25T04:56:31.741Z,986.7
2023-03-25T04:57:47.876Z,986.6
2023-03-25T04:59:04.009Z,986.6
2023-03-25T05:00:20.137Z,986.7
2023-03-25T05:01:36.280Z,986.6
2023-03-25T05:02:52.416Z,986.7
2023-03-25T05:04:08.566Z,986.7
2023-03-25T05:05:24.691Z,986.7
2023-03-25T05:06:40.827Z,986.7
2023-03-25T05:07:56.952Z,986.7
2023-03-25T05:09:13.157Z,986.7
2023-03-25T05:10:28.388Z,986.7
2023-03-25T05:11:43.593Z,986.8
2023-03-25T05:12:59.743Z,986.8
2023-03-25T05:14:15.879Z,986.7
2023-03-25T05:15:32.008Z,986.8
2023-03-25T05:16:48.158Z,986.7
2023-03-25T05:18:04.280Z,986.8
2023-03-25T05:19:20.418Z,986.8
2023-03-25T05:20:36.555Z,986.8
2023-03-25T05:21:52.704Z,986.8
2023-03-25T05:23:08.835Z,986.8
2023-03-25T05:24:24.964Z,986.8
2023-03-25T05:25:41.101Z,986.9
2023-03-25T05:26:57.251Z,986.9
2023-03-25T05:28:13.373Z,986.8
2023-03-25T05:29:29.520Z,986.8
2023-03-25T05:30:45.652Z,986.8
2023-03-25T05:32:01.784Z,986.8
2023-03-25T05:33:17.934Z,986.8
2023-03-25T05:34:34.061Z,986.8
2023-03-25T05:35:50.192Z,986.8
2023-03-25T05:37:06.326Z,986.7
2023-03-25T05:38:22.451Z,986.7
2023-03-25T05:39:38.616Z,986.7
2023-03-25T05:40:54.734Z,986.8
2023-03-25T05:42:10.881Z,986.8
2023-03-25T05:43:27.076Z,986.8
2023-03-25T05:44:42.297Z,986.7
2023-03-25T05:45:57.520Z,986.7
2023-03-25T05:47:12.660Z,986.7
2023-03-25T05:48:28.806Z,986.7
2023-03-25T05:49:44.946Z,986.7
2023-03-25T05:51:01.000Z,986.7
2023-03-25T05:52:17.214Z,986.7
2023-03-25T05:53:33.353Z,986.7
2023-03-25T05:54:49.499Z,986.7
2023-03-25T05:56:05.623Z,986.7
2023-03-25T05:57:21.766Z,986.6
2023-03-25T05:58:37.896Z,986.7
2023-03-25T05:59:54.032Z,986.6
2023-03-25T06:01:10.177Z,986.6
2023-03-25T06:02:26.314Z,986.6
2023-03-25T06:03:42.446Z,986.6
2023-03-25T06:04:58.572Z,986.6
2023-03-25T06:06:14.704Z,986.6
2023-03-25T06:07:30.845Z,986.6
2023-03-25T06:08:46.993Z,986.6
2023-03-25T06:10:03.128Z,986.6
2023-03-25T06:11:19.245Z,986.6
2023-03-25T06:12:35.379Z,986.7
2023-03-25T06:13:51.537Z,986.7
2023-03-25T06:15:07.674Z,986.7
2023-03-25T06:16:23.801Z,986.7
2023-03-25T06:17:39.936Z,986.8
2023-03-25T06:18:56.071Z,986.8
2023-03-25T06:20:12.221Z,986.9
2023-03-25T06:21:28.344Z,986.9
2023-03-25T06:22:44.491Z,986.9
2023-03-25T06:24:00.611Z,987
2023-03-25T06:25:16.755Z,987
2023-03-25T06:26:32.904Z,987
2023-03-25T06:27:49.021Z,987
2023-03-25T06:29:05.160Z,987
2023-03-25T06:30:21.297Z,987
2023-03-25T06:31:37.425Z,987
2023-03-25T06:32:53.586Z,986.9
2023-03-25T06:34:09.768Z,986.9
2023-03-25T06:35:25.026Z,986.9
2023-03-25T06:36:40.207Z,987
2023-03-25T06:37:56.352Z,987
2023-03-25T06:39:12.489Z,986.9
2023-03-25T06:40:28.608Z,987
2023-03-25T06:41:44.740Z,986.9
2023-03-25T06:43:00.897Z,986.9
2023-03-25T06:44:17.034Z,986.9
2023-03-25T06:45:33.158Z,987
2023-03-25T06:46:49.309Z,987
2023-03-25T06:48:05.425Z,987
2023-03-25T06:49:21.589Z,987
2023-03-25T06:50:37.706Z,987
2023-03-25T06:51:53.855Z,987
2023-03-25T06:53:09.979Z,987
2023-03-25T06:54:26.111Z,987
2023-03-25T06:55:42.256Z,987
2023-03-25T06:56:58.400Z,987
2023-03-25T06:58:14.537Z,987
2023-03-25T06:59:30.653Z,987
2023-03-25T07:00:46.805Z,987
2023-03-25T07:02:02.945Z,987
2023-03-25T07:03:19.084Z,987.1
2023-03-25T07:04:35.202Z,987.1
2023-03-25T07:05:51.339Z,987
2023-03-25T07:07:07.473Z,987
2023-03-25T07:08:23.684Z,987
2023-03-25T07:09:38.917Z,987
2023-03-25T07:10:55.114Z,987
2023-03-25T07:12:10.328Z,987
2023-03-25T07:13:26.449Z,987
2023-03-25T07:14:42.585Z,987
2023-03-25T07:15:58.724Z,987
2023-03-25T07:17:14.861Z,987
2023-03-25T07:18:31.008Z,986.9
2023-03-25T07:19:47.138Z,986.9
2023-03-25T07:21:03.263Z,986.9
2023-03-25T07:22:19.394Z,987
2023-03-25T07:23:35.527Z,987
2023-03-25T07:24:51.682Z,987
2023-03-25T07:26:07.810Z,987
2023-03-25T07:27:23.950Z,987
2023-03-25T07:29:56.208Z,987
2023-03-25T07:31:12.355Z,987
2023-03-25T07:32:28.493Z,987.1
2023-03-25T07:33:44.619Z,987
2023-03-25T07:35:00.778Z,987.1
2023-03-25T07:36:16.896Z,987
2023-03-25T07:37:33.031Z,987.1
2023-03-25T07:38:49.173Z,987.1
2023-03-25T07:40:05.314Z,987.1
2023-03-25T07:41:21.444Z,987.1
2023-03-25T07:42:37.575Z,987.1
2023-03-25T07:43:53.776Z,987.1
2023-03-25T07:45:09.047Z,987.1
2023-03-25T07:46:24.254Z,987
2023-03-25T07:47:40.399Z,987.1
2023-03-25T07:48:56.526Z,987.1
2023-03-25T07:50:12.661Z,987.1
2023-03-25T07:51:28.788Z,987.2
2023-03-25T07:52:44.916Z,987.1
2023-03-25T07:54:01.078Z,987.1
2023-03-25T07:55:17.200Z,987.1
2023-03-25T07:56:33.335Z,987.1
2023-03-25T07:57:49.470Z,987.1
2023-03-25T07:59:05.600Z,987.1
2023-03-25T08:00:21.757Z,987.1
2023-03-25T08:01:37.887Z,987.1
2023-03-25T08:02:54.006Z,987.2
2023-03-25T08:04:10.141Z,987.2
2023-03-25T08:05:26.273Z,987.3
2023-03-25T08:06:42.431Z,987.3
2023-03-25T08:07:58.558Z,987.3
2023-03-25T08:09:14.691Z,987.3
2023-03-25T08:10:30.822Z,987.3
2023-03-25T08:11:46.962Z,987.4
2023-03-25T08:13:03.115Z,987.4
2023-03-25T08:14:19.246Z,987.4
2023-03-25T08:15:35.380Z,987.4
2023-03-25T08:16:51.507Z,987.4
2023-03-25T08:18:07.704Z,987.3
2023-03-25T08:19:22.949Z,987.3
2023-03-25T08:20:38.149Z,987.3
2023-03-25T08:21:54.279Z,987.3
2023-03-25T08:23:10.438Z,987.4
2023-03-25T08:24:26.557Z,987.5
2023-03-25T08:25:42.705Z,987.4
2023-03-25T08:26:58.829Z,987.4
2023-03-25T08:28:14.967Z,987.4
2023-03-25T08:29:31.112Z,987.4
2023-03-25T08:30:47.235Z,987.4
2023-03-25T08:32:03.384Z,987.3
2023-03-25T08:33:19.517Z,987.4
2023-03-25T08:34:35.640Z,987.4
2023-03-25T08:35:51.795Z,987.3
2023-03-25T08:37:07.924Z,987.3
2023-03-25T08:38:24.059Z,987.3
2023-03-25T08:39:40.194Z,987.3
2023-03-25T08:40:56.329Z,987.3
2023-03-25T08:42:12.476Z,987.3
2023-03-25T08:43:28.612Z,987.3
2023-03-25T08:44:44.745Z,987.3
2023-03-25T08:46:00.867Z,987.3
2023-03-25T08:47:17.007Z,987.3
2023-03-25T08:48:33.159Z,987.3
2023-03-25T08:49:49.289Z,987.3
2023-03-25T08:51:05.425Z,987.3
2023-03-25T08:52:21.611Z,987.3
2023-03-25T08:53:36.848Z,987.2
2023-03-25T08:54:53.043Z,987.3
2023-03-25T08:56:08.239Z,987.2
2023-03-25T08:57:24.372Z,987.2
2023-03-25T08:58:40.523Z,987.2
2023-03-25T08:59:56.671Z,987.2
2023-03-25T09:01:12.793Z,987.3
2023-03-25T09:02:28.921Z,987.2
2023-03-25T09:03:45.058Z,987.3
2023-03-25T09:05:01.203Z,987.2
2023-03-25T09:06:17.333Z,987.3
2023-03-25T09:07:33.484Z,987.2
2023-03-25T09:08:49.602Z,987.2
2023-03-25T09:10:05.745Z,987.2
2023-03-25T09:11:21.888Z,987.3
2023-03-25T09:12:38.026Z,987.2
2023-03-25T09:13:54.156Z,987.2
2023-03-25T09:15:10.285Z,987.3
2023-03-25T09:16:26.420Z,987.2
2023-03-25T09:17:42.562Z,987.2
2023-03-25T09:18:58.707Z,987.2
2023-03-25T09:20:14.830Z,987.3
2023-03-25T09:21:30.966Z,987.3
2023-03-25T09:22:47.106Z,987.3
2023-03-25T09:24:03.258Z,987.4
2023-03-25T09:25:19.390Z,987.3
2023-03-25T09:26:35.524Z,987.3
2023-03-25T09:27:51.716Z,987.3
2023-03-25T09:29:06.958Z,987.3
2023-03-25T09:30:22.159Z,987.3
2023-03-25T09:31:37.304Z,987.3
2023-03-25T09:32:53.446Z,987.3
2023-03-25T09:34:09.584Z,987.4
2023-03-25T09:35:25.720Z,987.4
2023-03-25T09:36:41.852Z,987.4
2023-03-25T09:37:57.984Z,987.3
2023-03-25T09:39:14.142Z,987.3
2023-03-25T09:40:30.272Z,987.3
2023-03-25T09:41:46.397Z,987.4
2023-03-25T09:43:02.529Z,987.4
2023-03-25T09:44:18.666Z,987.3
2023-03-25T09:45:34.820Z,987.4
2023-03-25T09:46:50.939Z,987.4
2023-03-25T09:48:07.076Z,987.4
2023-03-25T09:49:23.226Z,987.5
2023-03-25T09:50:39.357Z,987.4
2023-03-25T09:51:55.498Z,987.4
2023-03-25T09:53:11.628Z,987.4
2023-03-25T09:54:27.769Z,987.3
2023-03-25T09:55:43.897Z,987.4
2023-03-25T09:57:00.036Z,987.4
2023-03-25T09:58:16.170Z,987.4
2023-03-25T09:59:32.307Z,987.4
2023-03-25T10:00:48.448Z,987.4
2023-03-25T10:02:04.575Z,987.4
2023-03-25T10:03:20.706Z,987.5
2023-03-25T10:04:36.863Z,987.5
2023-03-25T10:05:52.993Z,987.6
2023-03-25T10:07:09.123Z,987.6
2023-03-25T10:08:25.260Z,987.6
2023-03-25T10:09:41.396Z,987.6
2023-03-25T10:10:57.535Z,987.6
2023-03-25T10:12:13.672Z,987.6
2023-03-25T10:13:29.801Z,987.6
2023-03-25T10:14:45.945Z,987.6
2023-03-25T10:16:02.067Z,987.6
2023-03-25T10:17:18.217Z,987.5
2023-03-25T10:18:34.408Z,987.6
2023-03-25T10:19:49.641Z,987.5
2023-03-25T10:21:04.850Z,987.5
2023-03-25T10:22:20.985Z,987.6
2023-03-25T10:23:37.123Z,987.6
2023-03-25T10:24:53.255Z,987.5
2023-03-25T10:26:09.392Z,987.5
2023-03-25T10:27:25.532Z,987.4
2023-03-25T10:28:41.676Z,987.4
2023-03-25T10:29:57.801Z,987.4
2023-03-25T10:31:13.944Z,987.4
2023-03-25T10:32:30.063Z,987.4
2023-03-25T10:33:46.217Z,987.5
2023-03-25T10:35:02.346Z,987.4
2023-03-25T10:36:18.494Z,987.4
2023-03-25T10:37:34.617Z,987.4
2023-03-25T10:38:50.747Z,987.4
2023-03-25T10:40:06.906Z,987.4
2023-03-25T10:41:23.038Z,987.4
2023-03-25T10:42:39.167Z,987.4
2023-03-25T10:43:55.295Z,987.4
2023-03-25T10:45:11.431Z,987.4
2023-03-25T10:46:27.571Z,987.4
2023-03-25T10:47:43.705Z,987.4
2023-03-25T10:48:59.853Z,987.4
2023-03-25T10:50:15.986Z,987.4
2023-03-25T10:51:32.121Z,987.4
2023-03-25T10:52:48.319Z,987.4
2023-03-25T10:54:03.557Z,987.3
2023-03-25T10:55:18.771Z,987.4
2023-03-25T10:56:34.906Z,987.4
2023-03-25T10:57:51.042Z,987.3
2023-03-25T10:59:07.179Z,987.3
2023-03-25T11:00:23.314Z,987.3
2023-03-25T11:01:39.440Z,987.2
2023-03-25T11:02:55.593Z,987.1
2023-03-25T11:04:11.712Z,987.1
2023-03-25T11:05:27.856Z,987.2
2023-03-25T11:06:43.998Z,987.2
2023-03-25T11:08:00.131Z,987.2
2023-03-25T11:09:16.272Z,987.2
2023-03-25T11:10:32.413Z,987.1
2023-03-25T11:11:48.537Z,987
2023-03-25T11:13:04.667Z,987
2023-03-25T11:14:20.810Z,987.1
2023-03-25T11:15:36.949Z,987.1
2023-03-25T11:16:53.079Z,987.1
2023-03-25T11:18:09.224Z,987.1
2023-03-25T11:19:25.348Z,987.1
2023-03-25T11:20:41.486Z,987.1
2023-03-25T11:21:57.624Z,987.2
2023-03-25T11:23:13.773Z,987.1
2023-03-25T11:24:29.903Z,987.1
2023-03-25T11:25:46.023Z,987
2023-03-25T11:27:02.233Z,987
2023-03-25T11:28:17.462Z,987
2023-03-25T11:29:33.660Z,986.8
2023-03-25T11:30:48.869Z,986.9
2023-03-25T11:32:04.999Z,986.9
2023-03-25T11:33:21.131Z,986.9
2023-03-25T11:34:37.277Z,986.9
2023-03-25T11:35:53.416Z,986.9
2023-03-25T11:37:09.546Z,986.9
2023-03-25T11:38:25.698Z,986.9
2023-03-25T11:39:41.817Z,986.9
2023-03-25T11:40:57.951Z,986.9
2023-03-25T11:42:14.088Z,986.9
2023-03-25T11:43:30.221Z,986.8
2023-03-25T11:44:46.364Z,986.9
2023-03-25T11:46:02.509Z,986.9
2023-03-25T11:47:18.647Z,986.9
2023-03-25T11:48:34.778Z,986.8
2023-03-25T11:49:50.896Z,986.9
2023-03-25T11:51:07.044Z,986.8
2023-03-25T11:52:23.177Z,986.9
2023-03-25T11:53:39.322Z,986.9
2023-03-25T11:54:55.445Z,986.9
2023-03-25T11:56:11.583Z,986.9
2023-03-25T11:57:27.744Z,986.9
2023-03-25T11:58:43.870Z,986.9
2023-03-25T12:00:00.000Z,986.9
2023-03-25T12:01:16.134Z,986.8
2023-03-25T12:02:32.329Z,986.8
2023-03-25T12:03:47.582Z,986.7
2023-03-25T12:05:02.785Z,986.7
2023-03-25T12:06:18.917Z,986.6
2023-03-25T12:07:35.082Z,986.6
2023-03-25T12:08:51.204Z,986.6
2023-03-25T12:10:07.346Z,986.7
2023-03-25T12:11:23.475Z,986.6
2023-03-25T12:12:39.614Z,986.6
2023-03-25T12:13:55.756Z,986.6
2023-03-25T12:15:11.881Z,986.5
2023-03-25T12:16:28.032Z,986.5
2023-03-25T12:17:44.152Z,986.5
2023-03-25T12:19:00.281Z,986.5
2023-03-25T12:20:16.446Z,986.5
2023-03-25T12:21:32.570Z,986.4
2023-03-25T12:22:48.702Z,986.4
2023-03-25T12:24:04.832Z,986.4
2023-03-25T12:25:20.976Z,986.4
2023-03-25T12:26:37.122Z,986.4
2023-03-25T12:27:53.263Z,986.4
2023-03-25T12:29:09.000Z,986.4
2023-03-25T12:30:25.521Z,986.4
2023-03-25T12:31:41.652Z,986.4
2023-03-25T12:32:57.804Z,986.4
2023-03-25T12:34:13.944Z,986.4
2023-03-25T12:35:30.069Z,986.5
2023-03-25T12:36:46.270Z,986.4
2023-03-25T12:38:01.508Z,986.4
2023-03-25T12:39:16.706Z,986.5
2023-03-25T12:40:31.848Z,986.4
2023-03-25T12:41:48.013Z,986.4
2023-03-25T12:43:04.144Z,986.5
2023-03-25T12:44:20.279Z,986.5
2023-03-25T12:45:36.400Z,986.4
2023-03-25T12:46:52.532Z,986.4
2023-03-25T12:48:08.692Z,986.4
2023-03-25T12:49:24.817Z,986.4
2023-03-25T12:50:40.959Z,986.3
2023-03-25T12:51:57.096Z,986.3
2023-03-25T12:53:13.228Z,986.3
2023-03-25T12:54:29.375Z,986.3
2023-03-25T12:55:45.510Z,986.3
2023-03-25T12:57:01.625Z,986.3
2023-03-25T12:58:17.771Z,986.2
2023-03-25T12:59:33.900Z,986.2
2023-03-25T13:00:50.057Z,986.2
2023-03-25T13:02:06.184Z,986.2
2023-03-25T13:03:22.308Z,986.3
2023-03-25T13:04:38.449Z,986.2
2023-03-25T13:05:54.573Z,986.2
2023-03-25T13:07:10.733Z,986.2
2023-03-25T13:08:26.857Z,986.2
2023-03-25T13:09:42.990Z,986.2
2023-03-25T13:10:59.122Z,986.2
2023-03-25T13:12:15.265Z,986.2
2023-03-25T13:13:31.406Z,986.3
2023-03-25T13:14:47.547Z,986.3
2023-03-25T13:16:03.673Z,986.3
2023-03-25T13:17:19.799Z,986.3
2023-03-25T13:18:35.935Z,986.2
2023-03-25T13:19:52.087Z,986.2
2023-03-25T13:21:08.215Z,986.1
2023-03-25T13:22:24.356Z,986.2
2023-03-25T13:23:40.490Z,986.2
2023-03-25T13:24:56.616Z,986.2
2023-03-25T13:26:12.771Z,986.1
2023-03-25T13:27:28.959Z,986.1
2023-03-25T13:28:44.208Z,986.2
2023-03-25T13:29:59.417Z,986
2023-03-25T13:31:15.532Z,986.1
2023-03-25T13:32:31.683Z,986.2
2023-03-25T13:33:47.801Z,986.3
2023-03-25T13:35:03.949Z,986.1
2023-03-25T13:36:20.092Z,986.1
2023-03-25T13:37:36.220Z,986.1
2023-03-25T13:38:52.349Z,986.1
2023-03-25T13:40:08.491Z,986.2
2023-03-25T13:41:24.620Z,986.1
2023-03-25T13:42:40.777Z,986.1
2023-03-25T13:43:56.904Z,986.2
2023-03-25T13:45:13.035Z,986.1
2023-03-25T13:46:29.166Z,986.1
2023-03-25T13:47:45.304Z,986.1
2023-03-25T13:49:01.450Z,986.2
2023-03-25T13:51:33.708Z,986.1
2023-03-25T13:52:49.843Z,986.2
2023-03-25T13:54:05.982Z,986.2
2023-03-25T13:55:22.127Z,986.2
2023-03-25T13:56:38.271Z,986.3
2023-03-25T13:57:54.403Z,986.3
2023-03-25T13:59:10.538Z,986.2
2023-03-25T14:00:26.661Z,986.2
2023-03-25T14:01:42.865Z,986.2
2023-03-25T14:02:58.120Z,986.2
2023-03-25T14:04:14.305Z,986.2
2023-03-25T14:05:29.501Z,986.3
2023-03-25T14:06:45.651Z,986.2
2023-03-25T14:08:01.785Z,986.2
2023-03-25T14:09:17.914Z,986.2
2023-03-25T14:10:34.045Z,986.1
2023-03-25T14:11:50.187Z,986.3
2023-03-25T14:13:06.331Z,986.2
2023-03-25T14:14:22.453Z,986.2
2023-03-25T14:15:38.592Z,986.2
2023-03-25T14:16:54.718Z,986.2
2023-03-25T14:18:10.875Z,986.4
2023-03-25T14:19:27.001Z,986.4
2023-03-25T14:20:43.133Z,986.3
2023-03-25T14:21:59.270Z,986.3
2023-03-25T14:23:15.401Z,986.3
2023-03-25T14:24:31.550Z,986.3
2023-03-25T14:25:47.702Z,986.4
2023-03-25T14:27:03.832Z,986.3
2023-03-25T14:28:19.967Z,986.3
2023-03-25T14:29:36.100Z,986.4
2023-03-25T14:30:52.246Z,986.3
2023-03-25T14:32:08.372Z,986.3
2023-03-25T14:33:24.515Z,986.3
2023-03-25T14:34:40.634Z,986.4
2023-03-25T14:35:56.782Z,986.3
2023-03-25T14:37:12.977Z,986.4
2023-03-25T14:38:28.217Z,986.3
2023-03-25T14:39:43.438Z,986.3
2023-03-25T14:40:59.578Z,986.4
2023-03-25T14:42:15.703Z,986.3
2023-03-25T14:43:31.838Z,986.4
2023-03-25T14:44:47.968Z,986.4
2023-03-25T14:46:04.102Z,986.3
2023-03-25T14:47:20.256Z,986.3
2023-03-25T14:48:36.392Z,986.3
2023-03-25T14:49:52.530Z,986.4
2023-03-25T14:51:08.661Z,986.4
2023-03-25T14:52:24.795Z,986.5
2023-03-25T14:53:40.927Z,986.4
2023-03-25T14:54:57.069Z,986.5
2023-03-25T14:56:13.197Z,986.4
2023-03-25T14:57:29.329Z,986.5
2023-03-25T14:58:45.464Z,986.4
2023-03-25T15:00:01.619Z,986.5
2023-03-25T15:01:17.757Z,986.5
2023-03-25T15:02:33.884Z,986.5
2023-03-25T15:03:50.028Z,986.5
2023-03-25T15:05:06.164Z,986.4
2023-03-25T15:06:22.296Z,986.4
2023-03-25T15:07:38.432Z,986.6
2023-03-25T15:08:54.565Z,986.4
2023-03-25T15:10:10.706Z,986.5
2023-03-25T15:11:26.901Z,986.5
2023-03-25T15:12:42.137Z,986.5
2023-03-25T15:13:57.337Z,986.5
2023-03-25T15:15:13.470Z,986.5
2023-03-25T15:16:29.628Z,986.5
2023-03-25T15:17:45.760Z,986.5
2023-03-25T15:19:01.893Z,986.6
2023-03-25T15:20:18.032Z,986.5
2023-03-25T15:21:34.157Z,986.5
2023-03-25T15:22:50.313Z,986.5
2023-03-25T15:24:06.443Z,986.5
2023-03-25T15:25:22.571Z,986.5
2023-03-25T15:26:38.710Z,986.5
2023-03-25T15:27:54.835Z,986.5
2023-03-25T15:29:10.989Z,986.5
2023-03-25T15:30:27.115Z,986.4
2023-03-25T15:31:43.262Z,986.4
2023-03-25T15:32:59.389Z,986.4
2023-03-25T15:34:15.530Z,986.4
2023-03-25T15:35:31.671Z,986.4
2023-03-25T15:36:47.802Z,986.5
2023-03-25T15:38:03.935Z,986.5
2023-03-25T15:39:20.077Z,986.5
2023-03-25T15:40:36.194Z,986.4
2023-03-25T15:41:52.341Z,986.4
2023-03-25T15:43:08.482Z,986.4
2023-03-25T15:44:24.620Z,986.4
2023-03-25T15:45:40.817Z,986.5
2023-03-25T15:46:56.043Z,986.4
2023-03-25T15:48:12.231Z,986.5
2023-03-25T15:49:27.442Z,986.5
2023-03-25T15:50:43.576Z,986.5
2023-03-25T15:51:59.722Z,986.5
2023-03-25T15:53:15.853Z,986.4
2023-03-25T15:54:32.003Z,986.4
2023-03-25T15:55:48.135Z,986.4
2023-03-25T15:57:04.258Z,986.4
2023-03-25T15:58:20.407Z,986.5
2023-03-25T15:59:36.538Z,986.4
2023-03-25T16:00:52.681Z,986.5
2023-03-25T16:02:08.817Z,986.5
2023-03-25T16:03:24.951Z,986.4
2023-03-25T16:04:41.100Z,986.4
2023-03-25T16:05:57.214Z,986.4
2023-03-25T16:07:13.353Z,986.5
2023-03-25T16:08:29.496Z,986.5
2023-03-25T16:09:45.614Z,986.5
2023-03-25T16:11:01.763Z,986.6
2023-03-25T16:12:17.906Z,986.5
2023-03-25T16:13:34.040Z,986.5
2023-03-25T16:14:50.180Z,986.5
2023-03-25T16:16:06.296Z,986.5
2023-03-25T16:17:22.443Z,986.5
2023-03-25T16:18:38.584Z,986.5
2023-03-25T16:19:54.715Z,986.4
2023-03-25T16:21:10.904Z,986.5
2023-03-25T16:22:26.178Z,986.5
2023-03-25T16:23:41.386Z,986.5
2023-03-25T16:24:56.522Z,986.4
2023-03-25T16:26:12.666Z,986.5
2023-03-25T16:27:28.808Z,986.4
2023-03-25T16:28:44.951Z,986.5
2023-03-25T16:30:01.084Z,986.5
2023-03-25T16:31:17.205Z,986.5